createdAt,value
2023-03-27T00:00:16.840Z,97524.47
2023-03-27T00:02:46.972Z,97526.13
2023-03-27T00:05:15.057Z,97517.22
2023-03-27T00:07:42.973Z,97519.72
2023-03-27T00:10:11.059Z,97519.69
2023-03-27T00:12:39.882Z,97525.50
2023-03-27T00:15:08.273Z,97528.03
2023-03-27T00:17:37.044Z,97516.31
2023-03-27T00:20:06.111Z,97526.34
2023-03-27T00:22:33.825Z,97528.03
2023-03-27T00:25:01.691Z,97540.06
2023-03-27T00:27:30.164Z,97535.03
2023-03-27T00:29:57.841Z,97530.31
2023-03-27T00:32:25.866Z,97527.19
2023-03-27T00:34:53.657Z,97529.13
2023-03-27T00:37:21.811Z,97533.56
2023-03-27T00:39:50.536Z,97538.28
2023-03-27T00:42:23.041Z,97532.72
2023-03-27T00:44:51.839Z,97543.84
2023-03-27T00:47:31.053Z,97545.25
2023-03-27T00:50:01.306Z,97546.91
2023-03-27T00:52:31.512Z,97542.69
2023-03-27T00:55:01.746Z,97539.34
2023-03-27T00:57:31.456Z,97544.91
2023-03-27T01:00:01.139Z,97541.84
2023-03-27T01:02:29.142Z,97547.34
2023-03-27T01:04:57.088Z,97549.28
2023-03-27T01:07:25.454Z,97539.81
2023-03-27T01:09:53.807Z,97549.78
2023-03-27T01:12:30.842Z,97552.56
2023-03-27T01:15:17.532Z,97556.44
2023-03-27T01:18:21.004Z,97556.16
2023-03-27T01:21:26.214Z,97540.91
2023-03-27T01:24:24.689Z,97539.22
2023-03-27T01:27:06.383Z,97540.84
2023-03-27T01:29:47.047Z,97539.44
2023-03-27T01:32:41.818Z,97541.63
2023-03-27T01:35:37.305Z,97541.63
2023-03-27T01:38:29.573Z,97545.78
2023-03-27T01:41:25.603Z,97539.66
2023-03-27T01:43:56.181Z,97543.84
2023-03-27T01:46:53.240Z,97546.34
2023-03-27T01:50:00.789Z,97539.94
2023-03-27T01:52:32.038Z,97540.22
2023-03-27T01:55:05.219Z,97543.84
2023-03-27T01:57:48.859Z,97556.06
2023-03-27T02:00:22.097Z,97546.06
2023-03-27T02:03:14.593Z,97549.34
2023-03-27T02:05:51.659Z,97552.31
2023-03-27T02:08:27.886Z,97544.78
2023-03-27T02:11:04.669Z,97556.72
2023-03-27T02:13:41.101Z,97555.63
2023-03-27T02:16:12.483Z,97556.72
2023-03-27T02:18:47.685Z,97551.09
2023-03-27T02:21:16.490Z,97556.66
2023-03-27T02:23:44.966Z,97555.53
2023-03-27T02:26:14.061Z,97552.94
2023-03-27T02:28:54.408Z,97554.53
2023-03-27T02:31:41.270Z,97561.72
2023-03-27T02:34:26.331Z,97568.03
2023-03-27T02:37:19.891Z,97554.91
2023-03-27T02:40:27.718Z,97559.56
2023-03-27T02:43:19.928Z,97555.94
2023-03-27T02:46:09.179Z,97566.56
2023-03-27T02:48:40.909Z,97560.44
2023-03-27T02:51:16.584Z,97566.88
2023-03-27T02:54:12.774Z,97576.56
2023-03-27T02:56:46.459Z,97578.78
2023-03-27T02:59:36.838Z,97574.63
2023-03-27T03:02:09.645Z,97584.66
2023-03-27T03:04:57.256Z,97582.41
2023-03-27T03:07:38.308Z,97568.59
2023-03-27T03:10:09.716Z,97584.56
2023-03-27T03:12:38.025Z,97577.69
2023-03-27T03:15:08.119Z,97557.22
2023-03-27T03:17:37.501Z,97583.50
2023-03-27T03:20:07.467Z,97582.00
2023-03-27T03:22:36.423Z,97574.16
2023-03-27T03:25:04.866Z,97585.34
2023-03-27T03:27:34.197Z,97583.16
2023-03-27T03:30:16.577Z,97580.91
2023-03-27T03:33:00.234Z,97585.00
2023-03-27T03:35:28.374Z,97578.97
2023-03-27T03:37:59.491Z,97581.75
2023-03-27T03:40:28.934Z,97574.25
2023-03-27T03:42:59.049Z,97575.91
2023-03-27T03:45:29.725Z,97582.03
2023-03-27T03:47:57.893Z,97587.03
2023-03-27T03:50:25.873Z,97583.41
2023-03-27T03:52:53.747Z,97581.78
2023-03-27T03:55:21.405Z,97586.28
2023-03-27T03:57:50.267Z,97579.00
2023-03-27T04:00:26.916Z,97595.09
2023-03-27T04:02:57.257Z,97587.78
2023-03-27T04:05:26.149Z,97593.69
2023-03-27T04:07:59.496Z,97594.00
2023-03-27T04:10:27.904Z,97598.22
2023-03-27T04:12:58.607Z,97594.59
2023-03-27T04:15:33.291Z,97590.13
2023-03-27T04:18:20.294Z,97584.50
2023-03-27T04:20:54.507Z,97582.69
2023-03-27T04:23:30.510Z,97585.28
2023-03-27T04:26:00.442Z,97574.25
2023-03-27T04:28:38.495Z,97579.38
2023-03-27T04:31:26.368Z,97571.78
2023-03-27T04:34:14.438Z,97582.97
2023-03-27T04:37:03.674Z,97580.13
2023-03-27T04:39:37.310Z,97585.84
2023-03-27T04:42:05.743Z,97564.63
2023-03-27T04:44:35.105Z,97582.59
2023-03-27T04:47:03.861Z,97575.63
2023-03-27T04:49:38.708Z,97576.78
2023-03-27T04:52:18.102Z,97579.16
2023-03-27T04:54:46.817Z,97570.25
2023-03-27T04:57:16.144Z,97588.66
2023-03-27T04:59:44.195Z,97596.38
2023-03-27T05:02:33.799Z,97590.94
2023-03-27T05:05:09.176Z,97582.44
2023-03-27T05:07:38.078Z,97588.28
2023-03-27T05:10:08.728Z,97603.09
2023-03-27T05:12:43.008Z,97593.06
2023-03-27T05:15:15.071Z,97579.66
2023-03-27T05:17:47.256Z,97598.44
2023-03-27T05:20:17.081Z,97600.38
2023-03-27T05:22:45.987Z,97602.06
2023-03-27T05:25:23.391Z,97612.41
2023-03-27T05:27:52.391Z,97611.03
2023-03-27T05:30:22.704Z,97613.00
2023-03-27T05:32:59.553Z,97616.88
2023-03-27T05:35:30.287Z,97614.59
2023-03-27T05:37:59.604Z,97611.81
2023-03-27T05:40:34.378Z,97616.88
2023-03-27T05:43:03.474Z,97617.72
2023-03-27T05:45:33.399Z,97611.25
2023-03-27T05:48:02.935Z,97617.44
2023-03-27T05:50:35.482Z,97617.72
2023-03-27T05:53:10.301Z,97615.78
2023-03-27T05:55:49.797Z,97618.34
2023-03-27T05:58:41.745Z,97604.97
2023-03-27T06:01:11.257Z,97607.75
2023-03-27T06:03:39.485Z,97606.91
2023-03-27T06:06:15.494Z,97609.38
2023-03-27T06:08:46.264Z,97620.94
2023-03-27T06:11:17.738Z,97624.81
2023-03-27T06:13:46.729Z,97612.72
2023-03-27T06:16:26.128Z,97613.28
2023-03-27T06:19:26.238Z,97633.66
2023-03-27T06:21:54.065Z,97626.16
2023-03-27T06:24:22.531Z,97630.38
2023-03-27T06:26:51.116Z,97635.16
2023-03-27T06:29:21.342Z,97640.22
2023-03-27T06:31:51.791Z,97636.91
2023-03-27T06:34:39.868Z,97643.38
2023-03-27T06:37:37.092Z,97650.63
2023-03-27T06:40:09.812Z,97647.50
2023-03-27T06:42:41.172Z,97646.16
2023-03-27T06:45:38.383Z,97651.78
2023-03-27T06:48:37.837Z,97636.47
2023-03-27T06:51:08.111Z,97662.22
2023-03-27T06:53:38.057Z,97656.66
2023-03-27T06:56:07.095Z,97644.34
2023-03-27T06:58:54.685Z,97656.38
2023-03-27T07:01:27.726Z,97653.06
2023-03-27T07:04:18.828Z,97655.94
2023-03-27T07:06:54.504Z,97654.13
2023-03-27T07:09:22.373Z,97654.53
2023-03-27T07:12:00.430Z,97657.22
2023-03-27T07:14:31.127Z,97652.03
2023-03-27T07:16:59.393Z,97637.56
2023-03-27T07:19:31.957Z,97640.53
2023-03-27T07:22:12.656Z,97643.44
2023-03-27T07:24:41.614Z,97637.44
2023-03-27T07:27:11.248Z,97637.88
2023-03-27T07:29:39.354Z,97620.31
2023-03-27T07:32:09.275Z,97635.72
2023-03-27T07:34:43.486Z,97634.31
2023-03-27T07:37:17.049Z,97629.56
2023-03-27T07:40:06.996Z,97639.41
2023-03-27T07:42:35.503Z,97636.41
2023-03-27T07:45:06.678Z,97637.28
2023-03-27T07:47:36.882Z,97632.53
2023-03-27T07:50:10.450Z,97618.81
2023-03-27T07:52:43.776Z,97628.06
2023-03-27T07:55:16.163Z,97626.72
2023-03-27T07:58:00.793Z,97628.91
2023-03-27T08:00:36.090Z,97639.88
2023-03-27T08:03:16.791Z,97627.41
2023-03-27T08:05:56.727Z,97633.00
2023-03-27T08:08:26.653Z,97634.94
2023-03-27T08:10:59.352Z,97633.50
2023-03-27T08:13:33.668Z,97651.97
2023-03-27T08:16:05.620Z,97646.94
2023-03-27T08:18:33.867Z,97636.63
2023-03-27T08:21:03.928Z,97641.13
2023-03-27T08:23:33.951Z,97641.13
2023-03-27T08:26:20.999Z,97628.84
2023-03-27T08:28:58.725Z,97645.56
2023-03-27T08:31:31.477Z,97642.16
2023-03-27T08:34:02.182Z,97644.09
2023-03-27T08:36:42.780Z,97650.81
2023-03-27T08:39:13.486Z,97645.81
2023-03-27T08:41:58.235Z,97642.84
2023-03-27T08:44:33.522Z,97638.72
2023-03-27T08:47:36.163Z,97644.66
2023-03-27T08:50:28.995Z,97637.97
2023-03-27T08:53:14.799Z,97637.69
2023-03-27T08:55:44.321Z,97644.69
2023-03-27T08:58:33.740Z,97643.03
2023-03-27T09:01:41.444Z,97648.63
2023-03-27T09:04:29.270Z,97658.38
2023-03-27T09:07:11.823Z,97656.09
2023-03-27T09:10:15.437Z,97653.59
2023-03-27T09:13:29.989Z,97663.34
2023-03-27T09:16:04.349Z,97651.28
2023-03-27T09:18:43.959Z,97651.78
2023-03-27T09:21:19.825Z,97654.28
2023-03-27T09:23:49.179Z,97664.06
2023-03-27T09:26:36.876Z,97660.41
2023-03-27T09:29:22.457Z,97669.31
2023-03-27T09:31:59.102Z,97668.50
2023-03-27T09:34:30.627Z,97666.31
2023-03-27T09:36:59.343Z,97672.22
2023-03-27T09:39:32.840Z,97684.22
2023-03-27T09:42:20.292Z,97675.84
2023-03-27T09:44:52.837Z,97682.81
2023-03-27T09:47:22.496Z,97677.25
2023-03-27T09:49:58.065Z,97686.19
2023-03-27T09:52:41.984Z,97676.97
2023-03-27T09:55:31.804Z,97677.75
2023-03-27T09:58:24.935Z,97682.75
2023-03-27T10:01:16.215Z,97672.66
2023-03-27T10:03:54.195Z,97676.03
2023-03-27T10:06:44.765Z,97680.19
2023-03-27T10:09:29.342Z,97682.41
2023-03-27T10:12:08.155Z,97677.38
2023-03-27T10:14:45.930Z,97686.09
2023-03-27T10:17:38.170Z,97679.34
2023-03-27T10:20:19.700Z,97679.09
2023-03-27T10:23:01.625Z,97683.25
2023-03-27T10:25:38.058Z,97688.06
2023-03-27T10:28:36.338Z,97697.59
2023-03-27T10:31:31.509Z,97688.13
2023-03-27T10:34:29.451Z,97685.91
2023-03-27T10:37:28.168Z,97696.00
2023-03-27T10:40:36.617Z,97701.34
2023-03-27T10:43:14.420Z,97695.19
2023-03-27T10:45:48.192Z,97698.00
2023-03-27T10:48:33.049Z,97708.34
2023-03-27T10:51:05.845Z,97704.09
2023-03-27T10:54:09.634Z,97702.06
2023-03-27T10:57:08.827Z,97705.38
2023-03-27T10:59:45.855Z,97710.34
2023-03-27T11:02:33.240Z,97719.41
2023-03-27T11:05:43.895Z,97714.91
2023-03-27T11:08:43.035Z,97713.72
2023-03-27T11:11:16.986Z,97719.81
2023-03-27T11:13:48.940Z,97718.91
2023-03-27T11:16:22.250Z,97728.44
2023-03-27T11:19:41.268Z,97732.91
2023-03-27T11:22:43.410Z,97730.13
2023-03-27T11:25:51.750Z,97725.72
2023-03-27T11:28:39.801Z,97729.16
2023-03-27T11:31:25.959Z,97736.53
2023-03-27T11:34:02.114Z,97737.97
2023-03-27T11:36:35.177Z,97739.97
2023-03-27T11:39:44.086Z,97746.66
2023-03-27T11:42:19.553Z,97748.63
2023-03-27T11:44:50.824Z,97744.66
2023-03-27T11:47:55.927Z,97749.47
2023-03-27T11:51:14.893Z,97752.03
2023-03-27T11:54:00.160Z,97757.63
2023-03-27T11:56:56.576Z,97749.50
2023-03-27T11:59:57.257Z,97754.28
2023-03-27T12:02:49.916Z,97757.34
2023-03-27T12:05:57.477Z,97757.63
2023-03-27T12:08:46.019Z,97768.25
2023-03-27T12:11:14.374Z,97762.41
2023-03-27T12:14:18.464Z,97766.91
2023-03-27T12:17:02.624Z,97768.31
2023-03-27T12:20:22.199Z,97765.25
2023-03-27T12:23:08.422Z,97763.81
2023-03-27T12:25:56.271Z,97767.75
2023-03-27T12:29:23.859Z,97765.25
2023-03-27T12:32:33.811Z,97771.09
2023-03-27T12:35:22.436Z,97766.34
2023-03-27T12:37:59.627Z,97768.59
2023-03-27T12:40:48.999Z,97767.75
2023-03-27T12:43:21.588Z,97778.38
2023-03-27T12:46:13.203Z,97775.28
2023-03-27T12:48:58.750Z,97771.88
2023-03-27T12:52:04.407Z,97785.59
2023-03-27T12:55:18.525Z,97765.44
2023-03-27T12:58:03.159Z,97777.19
2023-03-27T13:01:00.557Z,97782.81
2023-03-27T13:04:19.862Z,97790.97
2023-03-27T13:07:06.945Z,97783.13
2023-03-27T13:10:13.426Z,97787.91
2023-03-27T13:12:57.793Z,97785.09
2023-03-27T13:15:43.585Z,97791.56
2023-03-27T13:18:24.129Z,97799.69
2023-03-27T13:21:07.654Z,97786.50
2023-03-27T13:23:54.756Z,97789.88
2023-03-27T13:26:46.749Z,97800.78
2023-03-27T13:29:17.798Z,97798.81
2023-03-27T13:31:49.434Z,97798.25
2023-03-27T13:34:41.715Z,97794.34
2023-03-27T13:37:15.004Z,97804.97
2023-03-27T13:39:55.710Z,97811.13
2023-03-27T13:42:36.015Z,97817.59
2023-03-27T13:45:26.427Z,97815.09
2023-03-27T13:48:48.572Z,97822.06
2023-03-27T13:51:26.668Z,97819.56
2023-03-27T13:54:34.122Z,97825.44
2023-03-27T13:57:16.256Z,97826.81
2023-03-27T14:00:10.429Z,97830.75
2023-03-27T14:03:02.194Z,97834.69
2023-03-27T14:05:56.476Z,97839.75
2023-03-27T14:08:35.480Z,97846.69
2023-03-27T14:11:34.689Z,97854.81
2023-03-27T14:14:21.890Z,97859.59
2023-03-27T14:16:52.012Z,97851.75
2023-03-27T14:19:45.317Z,97853.72
2023-03-27T14:22:24.167Z,97850.63
2023-03-27T14:25:03.091Z,97857.34
2023-03-27T14:27:46.886Z,97851.47
2023-03-27T14:30:27.112Z,97861.25
2023-03-27T14:33:20.085Z,97846.63
2023-03-27T14:35:57.605Z,97858.09
2023-03-27T14:38:26.261Z,97867.59
2023-03-27T14:41:06.555Z,97864.19
2023-03-27T14:43:52.271Z,97867.25
2023-03-27T14:46:22.926Z,97874.47
2023-03-27T14:48:58.071Z,97867.97
2023-03-27T14:51:37.158Z,97880.75
2023-03-27T14:57:19.323Z,97888.16
2023-03-27T14:59:54.448Z,97896.47
2023-03-27T15:02:26.756Z,97896.72
2023-03-27T15:05:24.666Z,97908.44
2023-03-27T15:08:00.545Z,97902.88
2023-03-27T15:10:53.101Z,97907.63
2023-03-27T15:13:47.996Z,97906.22
2023-03-27T15:16:25.155Z,97913.50
2023-03-27T15:19:15.513Z,97911.25
2023-03-27T15:21:57.829Z,97918.50
2023-03-27T15:24:33.538Z,97921.59
2023-03-27T15:27:02.176Z,97921.06
2023-03-27T15:29:42.815Z,97926.09
2023-03-27T15:32:18.922Z,97934.22
2023-03-27T15:34:58.172Z,97939.56
2023-03-27T15:37:28.798Z,97937.88
2023-03-27T15:40:22.598Z,97954.09
2023-03-27T15:43:03.298Z,97954.03
2023-03-27T15:45:41.578Z,97975.53
2023-03-27T15:48:22.209Z,97985.59
2023-03-27T15:51:07.721Z,97994.41
2023-03-27T15:53:58.840Z,97994.50
2023-03-27T15:56:39.551Z,97996.25
2023-03-27T15:59:09.916Z,98012.00
2023-03-27T16:01:52.436Z,98008.50
2023-03-27T16:04:22.494Z,98009.81
2023-03-27T16:06:52.513Z,98007.53
2023-03-27T16:09:26.165Z,98010.84
2023-03-27T16:11:54.917Z,98019.47
2023-03-27T16:14:29.840Z,98030.31
2023-03-27T16:17:12.549Z,98037.50
2023-03-27T16:19:48.924Z,98032.75
2023-03-27T16:22:31.430Z,98033.03
2023-03-27T16:25:00.673Z,98044.19
2023-03-27T16:27:40.005Z,98039.72
2023-03-27T16:30:10.822Z,98047.50
2023-03-27T16:32:38.559Z,98043.25
2023-03-27T16:35:07.445Z,98040.16
2023-03-27T16:37:35.482Z,98050.41
2023-03-27T16:40:03.348Z,98048.31
2023-03-27T16:42:31.454Z,98056.59
2023-03-27T16:44:59.286Z,98053.50
2023-03-27T16:47:27.017Z,98068.19
2023-03-27T16:50:10.214Z,98064.72
2023-03-27T16:52:38.540Z,98072.00
2023-03-27T16:55:07.725Z,98069.72
2023-03-27T16:57:36.553Z,98081.78
2023-03-27T17:00:05.747Z,98087.94
2023-03-27T17:02:35.092Z,98089.13
2023-03-27T17:05:07.949Z,98093.34
2023-03-27T17:07:36.233Z,98086.16
2023-03-27T17:10:04.383Z,98082.03
2023-03-27T17:12:32.475Z,98086.22
2023-03-27T17:15:00.652Z,98089.88
2023-03-27T17:17:31.973Z,98088.44
2023-03-27T17:20:00.806Z,98096.81
2023-03-27T17:22:30.132Z,98094.03
2023-03-27T17:25:01.294Z,98091.47
2023-03-27T17:27:29.277Z,98093.19
2023-03-27T17:29:57.657Z,98103.44
2023-03-27T17:32:26.946Z,98093.94
2023-03-27T17:34:55.079Z,98104.56
2023-03-27T17:37:23.520Z,98104.81
2023-03-27T17:39:51.528Z,98109.56
2023-03-27T17:42:19.169Z,98116.22
2023-03-27T17:44:46.862Z,98122.13
2023-03-27T17:47:14.636Z,98122.13
2023-03-27T17:49:43.377Z,98120.13
2023-03-27T17:52:12.505Z,98121.91
2023-03-27T17:54:40.701Z,98132.78
2023-03-27T17:57:08.428Z,98133.03
2023-03-27T17:59:36.741Z,98126.28
2023-03-27T18:02:04.762Z,98127.28
2023-03-27T18:04:33.287Z,98131.19
2023-03-27T18:07:01.339Z,98137.84
2023-03-27T18:09:32.538Z,98140.53
2023-03-27T18:12:00.289Z,98142.66
2023-03-27T18:14:28.025Z,98149.31
2023-03-27T18:16:55.743Z,98160.72
2023-03-27T18:19:25.203Z,98163.16
2023-03-27T18:21:52.813Z,98165.47
2023-03-27T18:24:20.512Z,98168.25
2023-03-27T18:26:52.418Z,98174.16
2023-03-27T18:29:21.392Z,98181.19
2023-03-27T18:31:49.242Z,98175.34
2023-03-27T18:34:17.142Z,98171.97
2023-03-27T18:36:50.751Z,98185.72
2023-03-27T18:39:18.949Z,98184.03
2023-03-27T18:41:46.892Z,98194.44
2023-03-27T18:44:14.708Z,98189.44
2023-03-27T18:46:42.361Z,98193.34
2023-03-27T18:49:21.607Z,98196.47
2023-03-27T18:51:51.798Z,98206.78
2023-03-27T18:54:19.527Z,98198.16
2023-03-27T18:56:48.865Z,98205.69
2023-03-27T18:59:16.772Z,98202.03
2023-03-27T19:01:44.489Z,98205.16
2023-03-27T19:04:13.559Z,98212.41
2023-03-27T19:06:42.951Z,98212.94
2023-03-27T19:09:10.749Z,98217.66
2023-03-27T19:11:38.448Z,98218.00
2023-03-27T19:14:11.256Z,98227.19
2023-03-27T19:16:58.061Z,98229.97
2023-03-27T19:19:46.594Z,98232.78
2023-03-27T19:22:14.654Z,98247.06
2023-03-27T19:24:47.040Z,98249.84
2023-03-27T19:27:23.638Z,98256.00
2023-03-27T19:29:55.420Z,98261.84
2023-03-27T19:32:24.559Z,98262.94
2023-03-27T19:34:52.512Z,98271.63
2023-03-27T19:37:20.382Z,98277.72
2023-03-27T19:39:48.079Z,98276.63
2023-03-27T19:42:15.973Z,98285.50
2023-03-27T19:44:44.072Z,98291.56
2023-03-27T19:47:11.779Z,98289.34
2023-03-27T19:49:40.165Z,98302.97
2023-03-27T19:52:17.054Z,98299.59
2023-03-27T19:54:44.701Z,98308.19
2023-03-27T19:57:12.500Z,98307.34
2023-03-27T19:59:40.335Z,98308.69
2023-03-27T20:02:09.746Z,98317.91
2023-03-27T20:04:37.490Z,98305.91
2023-03-27T20:07:07.159Z,98307.75
2023-03-27T20:09:34.814Z,98308.09
2023-03-27T20:12:04.231Z,98312.31
2023-03-27T20:14:32.534Z,98319.84
2023-03-27T20:17:00.422Z,98311.47
2023-03-27T20:19:30.543Z,98320.69
2023-03-27T20:22:00.974Z,98318.41
2023-03-27T20:24:29.403Z,98309.09
2023-03-27T20:27:00.290Z,98314.94
2023-03-27T20:29:28.065Z,98321.50
2023-03-27T20:31:55.885Z,98320.78
2023-03-27T20:34:24.154Z,98323.34
2023-03-27T20:36:55.023Z,98321.47
2023-03-27T20:39:52.116Z,98318.09
2023-03-27T20:42:23.237Z,98314.00
2023-03-27T20:44:58.568Z,98315.13
2023-03-27T20:47:26.483Z,98318.28
2023-03-27T20:49:59.073Z,98330.00
2023-03-27T20:52:26.821Z,98323.97
2023-03-27T20:54:54.613Z,98336.31
2023-03-27T20:57:22.718Z,98338.13
2023-03-27T20:59:50.957Z,98339.31
2023-03-27T21:02:19.644Z,98331.59
2023-03-27T21:04:47.920Z,98340.19
2023-03-27T21:07:16.205Z,98343.66
2023-03-27T21:09:46.751Z,98331.34
2023-03-27T21:12:14.412Z,98341.25
2023-03-27T21:14:42.113Z,98336.63
2023-03-27T21:17:23.541Z,98337.56
2023-03-27T21:19:54.707Z,98337.22
2023-03-27T21:22:22.460Z,98343.25
2023-03-27T21:24:50.506Z,98340.59
2023-03-27T21:27:18.284Z,98340.22
2023-03-27T21:29:45.964Z,98335.84
2023-03-27T21:32:13.729Z,98331.81
2023-03-27T21:34:47.398Z,98344.25
2023-03-27T21:37:15.174Z,98338.34
2023-03-27T21:39:42.881Z,98344.38
2023-03-27T21:42:10.638Z,98345.69
2023-03-27T21:44:38.305Z,98343.50
2023-03-27T21:47:05.996Z,98341.44
2023-03-27T21:49:33.745Z,98349.31
2023-03-27T21:52:01.374Z,98349.41
2023-03-27T21:54:28.987Z,98357.34
2023-03-27T21:56:56.777Z,98348.91
2023-03-27T21:59:25.311Z,98362.78
2023-03-27T22:01:53.826Z,98371.34
2023-03-27T22:04:21.962Z,98373.28
2023-03-27T22:06:49.892Z,98376.50
2023-03-27T22:09:18.092Z,98382.75
2023-03-27T22:11:45.928Z,98395.59
2023-03-27T22:14:13.708Z,98403.66
2023-03-27T22:16:41.560Z,98395.78
2023-03-27T22:19:09.823Z,98405.19
2023-03-27T22:21:37.697Z,98410.16
2023-03-27T22:24:06.215Z,98413.41
2023-03-27T22:26:37.472Z,98408.13
2023-03-27T22:29:09.302Z,98422.25
2023-03-27T22:31:37.157Z,98431.75
2023-03-27T22:34:05.512Z,98438.38
2023-03-27T22:36:33.722Z,98435.44
2023-03-27T22:39:01.447Z,98435.66
2023-03-27T22:41:29.171Z,98443.63
2023-03-27T22:43:56.828Z,98442.59
2023-03-27T22:46:24.588Z,98441.34
2023-03-27T22:48:56.978Z,98444.84
2023-03-27T22:51:25.483Z,98448.66
2023-03-27T22:53:53.262Z,98447.19
2023-03-27T22:56:21.285Z,98454.00
2023-03-27T22:58:49.070Z,98450.59
2023-03-27T23:01:16.835Z,98452.50
2023-03-27T23:03:44.617Z,98456.97
2023-03-27T23:06:19.678Z,98461.25
2023-03-27T23:08:50.965Z,98470.72
2023-03-27T23:11:19.485Z,98469.81
2023-03-27T23:13:47.323Z,98463.13
2023-03-27T23:16:15.093Z,98456.88
2023-03-27T23:18:42.819Z,98464.75
2023-03-27T23:21:12.560Z,98470.94
2023-03-27T23:23:41.120Z,98475.25
2023-03-27T23:26:09.571Z,98463.53
2023-03-27T23:28:40.117Z,98468.28
2023-03-27T23:31:11.498Z,98476.69
2023-03-27T23:33:41.192Z,98479.53
2023-03-27T23:36:11.610Z,98473.19
2023-03-27T23:38:39.956Z,98481.56
2023-03-27T23:41:08.642Z,98486.34
2023-03-27T23:43:55.101Z,98485.53
2023-03-27T23:46:22.829Z,98485.34
2023-03-27T23:48:50.558Z,98487.75
2023-03-27T23:51:18.252Z,98488.84
2023-03-27T23:53:46.060Z,98489.25
2023-03-27T23:56:13.781Z,98498.66
2023-03-27T23:58:41.705Z,98498.28
